Terminal Aerodrome Forecast
Issued by NWS Sioux Falls, SD

Home | Current Version | Previous Version | Graphics & Text | Print | Product List | Glossary Off
Versions: 1 2 3 4 5 6 7 8 9 10 11 12 13 14 15 16 17 18 19 20 21 22 23 24 25 26

000
FTUS43 KFSD 250528
TAFSUX
TAF
KSUX 250528Z 2506/2606 10009KT P6SM BKN015
     FM250900 05010KT P6SM OVC008
      TEMPO 2509/2513 5SM -SHRA BR
     FM251700 06014KT P6SM BKN015
     FM252100 07014KT P6SM BKN035=

USA.gov is the U.S. government's official web portal to all federal, state and local government web resources and services.